Archer City, Texas
Current Conditions -  °F | °C
As of 5:55 AM on Sunday 23 Nov 2014 (Local Time) from KCWC Reporting Station
Scattered Clouds Scattered Clouds  
Wind Chill: 46°   Ceiling: Unl
Heat Index: 48°   Visibility: 7mi
Dew Point: 48°   Wind: 6mph
Humidity: 100%   Direction: 160°SSE
Pressure: 29.53"   Gusts: NA
Location:  33.6°N, 98.63°W
Report Text: KCWC 231155Z AUTO 16005KT 7SM SCT002 09/09 A2953 RMK AO2 70002 T00900090 10103 20082
Loading
Personal Weather Stations






























Interactive Weather Map New forecast layout! Learn more

10-Day Weather Forecast

Advertisements
Track Severe Weather on mobile